createdAt,value
2023-03-18T00:03:39.496Z,99.90
2023-03-18T00:07:41.722Z,99.90
2023-03-18T00:11:43.469Z,99.90
2023-03-18T00:15:45.233Z,99.90
2023-03-18T00:19:47.167Z,99.90
2023-03-18T00:23:50.716Z,99.90
2023-03-18T00:27:52.795Z,99.90
2023-03-18T00:31:54.468Z,99.90
2023-03-18T00:35:56.158Z,99.90
2023-03-18T00:40:06.252Z,99.90
2023-03-18T00:44:08.345Z,99.90
2023-03-18T00:48:11.047Z,99.90
2023-03-18T00:52:12.781Z,99.90
2023-03-18T00:56:15.879Z,99.90
2023-03-18T01:00:18.905Z,99.90
2023-03-18T01:04:21.473Z,99.90
2023-03-18T01:08:23.636Z,99.90
2023-03-18T01:12:25.551Z,99.90
2023-03-18T01:16:28.176Z,99.90
2023-03-18T01:20:30.345Z,99.90
2023-03-18T01:24:32.157Z,99.90
2023-03-18T01:28:33.853Z,99.90
2023-03-18T01:32:36.432Z,99.90
2023-03-18T01:36:38.092Z,99.90
2023-03-18T01:40:42.622Z,99.90
2023-03-18T01:44:46.183Z,99.90
2023-03-18T01:48:49.543Z,99.90
2023-03-18T01:52:59.012Z,99.90
2023-03-18T01:57:01.378Z,99.90
2023-03-18T02:01:26.050Z,99.90
2023-03-18T02:05:29.904Z,99.90
2023-03-18T02:09:31.890Z,99.90
2023-03-18T02:13:39.803Z,99.90
2023-03-18T02:17:46.290Z,99.90
2023-03-18T02:22:03.865Z,99.90
2023-03-18T02:26:11.724Z,99.90
2023-03-18T02:30:18.830Z,99.90
2023-03-18T02:34:24.746Z,99.90
2023-03-18T02:38:26.415Z,99.90
2023-03-18T02:42:30.386Z,99.90
2023-03-18T02:46:55.174Z,99.90
2023-03-18T02:50:57.458Z,99.90
2023-03-18T02:54:59.218Z,99.90
2023-03-18T02:59:01.002Z,99.90
2023-03-18T03:03:03.793Z,99.90
2023-03-18T03:07:05.640Z,99.90
2023-03-18T03:11:08.467Z,99.90
2023-03-18T03:15:10.485Z,99.90
2023-03-18T03:19:12.290Z,99.90
2023-03-18T03:23:15.572Z,99.90
2023-03-18T03:27:17.673Z,99.90
2023-03-18T03:31:19.384Z,99.90
2023-03-18T03:35:22.172Z,99.90
2023-03-18T03:39:23.821Z,99.90
2023-03-18T03:43:25.492Z,99.90
2023-03-18T03:47:27.115Z,99.90
2023-03-18T03:51:29.289Z,99.90
2023-03-18T03:55:31.443Z,99.90
2023-03-18T03:59:33.323Z,99.90
2023-03-18T04:03:35.064Z,99.90
2023-03-18T04:07:37.526Z,99.90
2023-03-18T04:11:39.154Z,99.90
2023-03-18T04:15:40.886Z,99.90
2023-03-18T04:19:42.537Z,99.90
2023-03-18T04:23:44.230Z,99.90
2023-03-18T04:27:45.895Z,99.90
2023-03-18T04:31:47.864Z,99.90
2023-03-18T04:35:49.709Z,99.90
2023-03-18T04:39:51.465Z,99.90
2023-03-18T04:43:53.180Z,99.90
2023-03-18T04:47:54.970Z,99.90
2023-03-18T04:51:56.658Z,99.90
2023-03-18T04:55:58.410Z,99.90
2023-03-18T05:00:00.154Z,99.90
2023-03-18T05:04:01.959Z,99.90
2023-03-18T05:08:03.669Z,99.90
2023-03-18T05:12:05.567Z,99.90
2023-03-18T05:16:08.695Z,99.90
2023-03-18T05:20:11.436Z,99.90
2023-03-18T05:24:13.079Z,99.90
2023-03-18T05:28:14.748Z,99.90
2023-03-18T05:32:16.629Z,99.90
2023-03-18T05:36:19.126Z,99.90
2023-03-18T05:40:21.438Z,99.90
2023-03-18T05:44:23.440Z,99.90
2023-03-18T05:48:25.632Z,99.90
2023-03-18T05:52:28.195Z,99.90
2023-03-18T05:56:31.113Z,99.90
2023-03-18T06:00:32.996Z,99.90
2023-03-18T06:04:34.659Z,99.90
2023-03-18T06:08:36.348Z,99.90
2023-03-18T06:12:38.841Z,99.90
2023-03-18T06:16:41.872Z,99.90
2023-03-18T06:20:43.537Z,99.90
2023-03-18T06:24:47.827Z,99.90
2023-03-18T06:28:50.834Z,99.90
2023-03-18T06:32:53.203Z,99.90
2023-03-18T06:36:54.878Z,99.90
2023-03-18T06:40:56.678Z,99.90
2023-03-18T06:44:58.330Z,99.90
2023-03-18T06:48:59.921Z,99.90
2023-03-18T06:53:01.563Z,99.90
2023-03-18T06:57:03.302Z,99.90
2023-03-18T07:01:05.138Z,99.90
2023-03-18T07:05:07.816Z,99.90
2023-03-18T07:09:11.113Z,99.90
2023-03-18T07:13:13.453Z,99.90
2023-03-18T07:17:15.186Z,99.90
2023-03-18T07:21:17.733Z,99.90
2023-03-18T07:25:21.704Z,99.90
2023-03-18T07:29:24.239Z,99.90
2023-03-18T07:33:25.884Z,99.90
2023-03-18T07:37:27.576Z,99.90
2023-03-18T07:41:29.657Z,99.90
2023-03-18T07:45:31.593Z,99.90
2023-03-18T07:49:33.437Z,99.90
2023-03-18T07:53:35.671Z,99.90
2023-03-18T07:57:37.808Z,99.90
2023-03-18T08:01:39.767Z,99.90
2023-03-18T08:05:41.464Z,99.90
2023-03-18T08:09:43.164Z,99.90
2023-03-18T08:13:44.862Z,99.90
2023-03-18T08:17:47.175Z,99.90
2023-03-18T08:21:49.017Z,99.90
2023-03-18T08:25:51.041Z,99.90
2023-03-18T08:29:52.684Z,99.90
2023-03-18T08:33:56.143Z,99.90
2023-03-18T08:37:57.799Z,99.90
2023-03-18T08:41:59.555Z,99.90
2023-03-18T08:46:01.316Z,99.90
2023-03-18T08:50:03.041Z,99.90
2023-03-18T08:54:04.695Z,99.90
2023-03-18T08:58:07.413Z,99.90
2023-03-18T09:02:16.724Z,99.90
2023-03-18T09:06:18.419Z,99.90
2023-03-18T09:10:20.170Z,99.90
2023-03-18T09:14:21.837Z,99.90
2023-03-18T09:18:24.732Z,99.90
2023-03-18T09:22:26.420Z,99.90
2023-03-18T09:26:28.089Z,99.90
2023-03-18T09:30:30.339Z,99.90
2023-03-18T09:34:32.016Z,99.90
2023-03-18T09:38:33.693Z,99.90
2023-03-18T09:42:56.523Z,99.90
2023-03-18T09:47:04.248Z,99.90
2023-03-18T09:51:37.282Z,99.90
2023-03-18T09:55:46.848Z,99.90
2023-03-18T09:59:55.283Z,99.90
2023-03-18T10:04:23.589Z,99.90
2023-03-18T10:08:36.161Z,99.90
2023-03-18T10:12:46.201Z,99.90
2023-03-18T10:17:00.848Z,99.90
2023-03-18T10:21:17.548Z,99.80
2023-03-18T10:25:32.804Z,95.90
2023-03-18T10:29:40.706Z,92.40
2023-03-18T10:33:51.865Z,92.50
2023-03-18T10:38:07.627Z,88.10
2023-03-18T10:42:42.315Z,84.70
2023-03-18T10:46:46.406Z,82.70
2023-03-18T10:51:09.317Z,79.00
2023-03-18T10:55:21.635Z,85.00
2023-03-18T10:59:25.659Z,92.60
2023-03-18T11:03:34.863Z,97.20
2023-03-18T11:08:05.475Z,97.50
2023-03-18T11:12:23.219Z,99.90
2023-03-18T11:16:33.678Z,99.90
2023-03-18T11:20:47.341Z,99.90
2023-03-18T11:25:06.100Z,99.90
2023-03-18T11:29:22.202Z,99.90
2023-03-18T11:33:26.871Z,99.90
2023-03-18T11:37:33.653Z,97.00
2023-03-18T11:41:39.646Z,98.50
2023-03-18T11:45:50.732Z,99.00
2023-03-18T11:49:52.503Z,97.30
2023-03-18T11:54:34.464Z,93.80
2023-03-18T11:59:17.820Z,90.80
2023-03-18T12:04:10.687Z,88.70
2023-03-18T12:08:15.428Z,84.60
2023-03-18T12:12:38.117Z,86.10
2023-03-18T12:17:18.319Z,85.70
2023-03-18T12:21:53.986Z,90.40
2023-03-18T12:26:23.500Z,91.50
2023-03-18T12:31:04.469Z,89.40
2023-03-18T12:35:37.191Z,91.10
2023-03-18T12:39:45.979Z,91.10
2023-03-18T12:43:56.623Z,91.20
2023-03-18T12:48:04.591Z,92.90
2023-03-18T12:52:24.061Z,96.20
2023-03-18T12:56:31.040Z,97.30
2023-03-18T13:00:39.870Z,97.10
2023-03-18T13:04:55.298Z,97.70
2023-03-18T13:09:15.548Z,98.50
2023-03-18T13:13:17.740Z,99.90
2023-03-18T13:17:32.932Z,96.00
2023-03-18T13:21:40.613Z,92.50
2023-03-18T13:26:22.146Z,92.50
2023-03-18T13:30:51.892Z,95.20
2023-03-18T13:35:38.211Z,99.30
2023-03-18T13:39:56.596Z,99.80
2023-03-18T13:44:09.259Z,99.90
2023-03-18T13:48:16.276Z,99.90
2023-03-18T13:52:42.763Z,99.90
2023-03-18T13:56:46.649Z,99.90
2023-03-18T14:00:54.362Z,99.90
2023-03-18T14:04:59.814Z,99.90
2023-03-18T14:09:22.860Z,99.90
2023-03-18T14:13:28.118Z,99.90
2023-03-18T14:17:41.795Z,99.90
2023-03-18T14:22:04.522Z,99.90
2023-03-18T14:26:08.730Z,99.90
2023-03-18T14:30:31.609Z,99.90
2023-03-18T14:34:35.714Z,99.90
2023-03-18T14:39:02.185Z,99.90
2023-03-18T14:43:19.389Z,99.90
2023-03-18T14:47:38.283Z,99.90
2023-03-18T14:51:41.305Z,99.90
2023-03-18T14:55:44.881Z,99.90
2023-03-18T14:59:46.529Z,99.90
2023-03-18T15:03:49.758Z,99.90
2023-03-18T15:07:53.388Z,99.90
2023-03-18T15:11:55.402Z,99.90
2023-03-18T15:15:57.164Z,99.90
2023-03-18T15:20:00.413Z,99.90
2023-03-18T15:24:05.717Z,99.90
2023-03-18T15:28:07.595Z,99.90
2023-03-18T15:32:15.851Z,99.90
2023-03-18T15:36:17.604Z,99.90
2023-03-18T15:40:22.383Z,99.90
2023-03-18T15:44:31.658Z,99.90
2023-03-18T15:48:39.048Z,99.90
2023-03-18T15:52:42.857Z,99.90
2023-03-18T15:56:48.504Z,99.90
2023-03-18T16:00:50.917Z,99.90
2023-03-18T16:04:53.543Z,99.90
2023-03-18T16:08:55.563Z,99.90
2023-03-18T16:13:01.648Z,99.90
2023-03-18T16:17:03.734Z,99.90
2023-03-18T16:21:06.286Z,99.90
2023-03-18T16:25:09.307Z,99.90
2023-03-18T16:29:22.600Z,99.90
2023-03-18T16:33:24.599Z,99.90
2023-03-18T16:37:27.278Z,99.90
2023-03-18T16:41:29.409Z,99.90
2023-03-18T16:45:33.765Z,99.90
2023-03-18T16:49:37.188Z,99.90
2023-03-18T16:53:39.025Z,99.90
2023-03-18T16:57:43.674Z,99.90
2023-03-18T17:01:45.935Z,99.90
2023-03-18T17:05:50.552Z,99.90
2023-03-18T17:09:53.319Z,99.90
2023-03-18T17:13:56.134Z,99.90
2023-03-18T17:17:59.811Z,99.90
2023-03-18T17:22:02.714Z,99.90
2023-03-18T17:26:05.655Z,99.90
2023-03-18T17:30:38.076Z,99.90
2023-03-18T17:34:39.822Z,99.90
2023-03-18T17:38:41.609Z,99.90
2023-03-18T17:42:44.422Z,99.90
2023-03-18T17:46:46.873Z,99.90
2023-03-18T17:50:51.257Z,99.90
2023-03-18T17:54:54.179Z,99.90
2023-03-18T17:58:55.983Z,99.90
2023-03-18T18:03:01.894Z,99.90
2023-03-18T18:07:03.689Z,99.90
2023-03-18T18:11:28.741Z,99.90
2023-03-18T18:15:30.404Z,99.90
2023-03-18T18:19:32.163Z,99.90
2023-03-18T18:23:36.513Z,99.90
2023-03-18T18:27:38.176Z,99.90
2023-03-18T18:31:39.919Z,99.90
2023-03-18T18:35:42.550Z,99.90
2023-03-18T18:39:44.195Z,99.90
2023-03-18T18:43:45.851Z,99.90
2023-03-18T18:47:47.529Z,99.90
2023-03-18T18:51:54.667Z,99.90
2023-03-18T18:56:02.417Z,99.90
2023-03-18T19:00:09.681Z,99.90
2023-03-18T19:04:14.431Z,99.90
2023-03-18T19:08:28.810Z,99.90
2023-03-18T19:12:30.596Z,99.90
2023-03-18T19:16:34.009Z,99.90
2023-03-18T19:20:35.638Z,99.90
2023-03-18T19:24:39.225Z,99.90
2023-03-18T19:28:57.664Z,99.90
2023-03-18T19:33:01.887Z,99.90
2023-03-18T19:37:05.702Z,99.90
2023-03-18T19:41:07.358Z,99.90
2023-03-18T19:45:13.297Z,99.90
2023-03-18T19:49:29.793Z,99.90
2023-03-18T19:53:32.113Z,99.90
2023-03-18T19:57:34.317Z,99.90
2023-03-18T20:01:35.957Z,99.90
2023-03-18T20:05:37.825Z,99.90
2023-03-18T20:09:39.571Z,99.90
2023-03-18T20:13:42.381Z,99.90
2023-03-18T20:17:51.655Z,99.90
2023-03-18T20:21:54.155Z,99.90
2023-03-18T20:25:56.224Z,99.90
2023-03-18T20:29:58.691Z,99.90
2023-03-18T20:34:00.538Z,99.90
2023-03-18T20:38:32.543Z,99.90
2023-03-18T20:42:34.347Z,99.90
2023-03-18T20:46:36.236Z,99.90
2023-03-18T20:50:38.270Z,99.90
2023-03-18T20:54:39.962Z,99.90
2023-03-18T20:58:41.819Z,99.90
2023-03-18T21:02:44.073Z,99.90
2023-03-18T21:06:46.230Z,99.90
2023-03-18T21:10:47.962Z,99.90
2023-03-18T21:14:49.957Z,99.90
2023-03-18T21:18:51.585Z,99.90
2023-03-18T21:22:54.294Z,99.90
2023-03-18T21:27:04.826Z,99.90
2023-03-18T21:31:24.667Z,99.90
2023-03-18T21:35:26.931Z,99.90
2023-03-18T21:39:29.335Z,99.90
2023-03-18T21:43:33.804Z,99.90
2023-03-18T21:47:35.792Z,99.90
2023-03-18T21:51:39.913Z,99.90
2023-03-18T21:55:41.894Z,99.90
2023-03-18T21:59:44.359Z,99.90
2023-03-18T22:03:47.307Z,99.90
2023-03-18T22:07:50.765Z,99.90
2023-03-18T22:11:52.509Z,99.90
2023-03-18T22:15:55.663Z,99.90
2023-03-18T22:19:58.963Z,99.90
2023-03-18T22:24:00.943Z,99.90
2023-03-18T22:28:02.712Z,99.90
2023-03-18T22:32:04.660Z,99.90
2023-03-18T22:36:06.723Z,99.90
2023-03-18T22:40:15.460Z,99.90
2023-03-18T22:44:22.641Z,99.90
2023-03-18T22:48:24.691Z,99.90
2023-03-18T22:52:29.797Z,99.90
2023-03-18T22:56:32.346Z,99.90
2023-03-18T23:00:41.932Z,99.90
2023-03-18T23:04:43.881Z,99.90
2023-03-18T23:08:46.180Z,99.90
2023-03-18T23:12:48.284Z,99.90
2023-03-18T23:16:49.967Z,99.90
2023-03-18T23:20:52.530Z,99.90
2023-03-18T23:24:54.808Z,99.90
2023-03-18T23:28:56.573Z,99.90
2023-03-18T23:32:58.274Z,99.90
2023-03-18T23:36:59.963Z,99.90
2023-03-18T23:41:01.674Z,99.90
2023-03-18T23:45:04.810Z,99.90
2023-03-18T23:49:07.279Z,99.90
2023-03-18T23:53:08.925Z,99.90
2023-03-18T23:57:11.165Z,99.90
